createdAt,value
2023-01-31T00:00:52.109Z,71.03
2023-01-31T00:03:25.352Z,71.17
2023-01-31T00:05:54.594Z,71.14
2023-01-31T00:08:23.244Z,71.16
2023-01-31T00:10:52.277Z,71.09
2023-01-31T00:13:21.555Z,70.85
2023-01-31T00:15:50.484Z,71.25
2023-01-31T00:18:19.893Z,70.95
2023-01-31T00:20:48.770Z,70.97
2023-01-31T00:23:18.182Z,70.83
2023-01-31T00:25:47.554Z,70.94
2023-01-31T00:28:16.879Z,70.93
2023-01-31T00:30:46.166Z,70.91
2023-01-31T00:33:15.473Z,70.90
2023-01-31T00:35:44.921Z,70.80
2023-01-31T00:38:14.179Z,70.82
2023-01-31T00:40:43.307Z,70.79
2023-01-31T00:43:12.315Z,70.69
2023-01-31T00:45:43.379Z,70.91
2023-01-31T00:48:12.487Z,70.68
2023-01-31T00:50:42.244Z,70.74
2023-01-31T00:53:13.183Z,70.56
2023-01-31T00:55:42.855Z,70.64
2023-01-31T00:58:11.300Z,70.69
2023-01-31T04:00:37.472Z,70.40
2023-01-31T04:03:45.686Z,70.49
2023-01-31T04:06:16.171Z,70.35
2023-01-31T04:08:45.707Z,70.44
2023-01-31T04:11:16.224Z,70.48
2023-01-31T04:13:45.831Z,70.45
2023-01-31T04:16:15.112Z,70.33
2023-01-31T04:18:44.839Z,70.36
2023-01-31T04:21:15.777Z,70.46
2023-01-31T04:23:45.130Z,70.63
2023-01-31T04:26:14.339Z,70.36
2023-01-31T04:28:43.769Z,70.32
2023-01-31T04:31:12.906Z,70.45
2023-01-31T04:33:42.378Z,70.38
2023-01-31T04:36:12.154Z,70.18
2023-01-31T04:38:41.607Z,70.37
2023-01-31T04:41:10.823Z,70.25
2023-01-31T04:43:40.312Z,70.16
2023-01-31T04:46:09.170Z,70.40
2023-01-31T04:48:39.290Z,70.47
2023-01-31T04:51:08.616Z,70.40
2023-01-31T04:53:37.692Z,70.16
2023-01-31T04:56:06.806Z,70.27
2023-01-31T04:58:36.782Z,70.23
2023-01-31T05:01:06.417Z,70.26
2023-01-31T05:03:35.456Z,70.22
2023-01-31T05:06:04.132Z,70.29
2023-01-31T05:08:33.063Z,70.56
2023-01-31T05:11:04.435Z,70.31
2023-01-31T05:13:39.304Z,70.32
2023-01-31T05:16:11.562Z,70.29
2023-01-31T05:18:41.297Z,70.32
2023-01-31T05:21:12.037Z,70.15
2023-01-31T05:23:41.588Z,70.16
2023-01-31T05:26:10.946Z,70.14
2023-01-31T05:28:40.092Z,70.19
2023-01-31T05:31:09.646Z,70.02
2023-01-31T05:33:39.545Z,70.10
2023-01-31T05:36:09.372Z,69.89
2023-01-31T05:38:38.712Z,70.04
2023-01-31T05:41:07.158Z,70.04
2023-01-31T05:43:37.157Z,70.07
2023-01-31T05:46:06.565Z,69.92
2023-01-31T05:48:35.496Z,70.10
2023-01-31T05:51:04.456Z,69.76
2023-01-31T05:53:33.516Z,69.82
2023-01-31T05:56:03.018Z,69.96
2023-01-31T05:58:32.166Z,69.91
2023-01-31T06:01:01.193Z,69.93
2023-01-31T06:03:31.099Z,69.91
2023-01-31T06:06:00.601Z,70.08
2023-01-31T06:08:29.875Z,70.05
2023-01-31T06:11:03.017Z,69.94
2023-01-31T06:13:33.471Z,69.59
2023-01-31T06:16:02.565Z,69.83
2023-01-31T06:18:32.349Z,69.64
2023-01-31T06:21:01.780Z,69.80
2023-01-31T06:23:30.974Z,69.68
2023-01-31T06:26:00.795Z,69.97
2023-01-31T06:28:30.800Z,69.71
2023-01-31T06:31:00.032Z,69.99
2023-01-31T06:33:43.543Z,69.87
2023-01-31T06:36:19.122Z,69.92
2023-01-31T06:38:52.936Z,69.72
2023-01-31T06:41:22.438Z,69.76
2023-01-31T06:43:51.648Z,69.71
2023-01-31T06:46:21.676Z,69.64
2023-01-31T06:48:50.160Z,69.80
2023-01-31T06:51:19.086Z,69.88
2023-01-31T06:53:48.288Z,69.84
2023-01-31T06:56:17.829Z,69.84
2023-01-31T06:58:47.381Z,69.62
2023-01-31T07:01:16.966Z,69.60
2023-01-31T07:03:46.279Z,69.66
2023-01-31T07:06:15.545Z,69.69
2023-01-31T07:08:44.932Z,69.71
2023-01-31T07:11:14.351Z,69.70
2023-01-31T07:13:43.904Z,69.70
2023-01-31T07:16:13.025Z,69.75
2023-01-31T07:18:42.534Z,69.68
2023-01-31T07:21:11.370Z,69.49
2023-01-31T07:23:40.624Z,69.59
2023-01-31T07:26:09.499Z,69.55
2023-01-31T07:28:38.057Z,69.80
2023-01-31T07:31:08.284Z,69.54
2023-01-31T07:33:37.697Z,69.41
2023-01-31T07:36:08.208Z,69.52
2023-01-31T07:38:37.135Z,69.53
2023-01-31T07:41:06.406Z,69.44
2023-01-31T07:43:35.039Z,69.15
2023-01-31T07:46:10.125Z,69.37
2023-01-31T07:48:39.057Z,69.43
2023-01-31T07:51:08.764Z,69.31
2023-01-31T07:53:42.369Z,69.24
2023-01-31T07:56:17.013Z,69.26
2023-01-31T07:58:47.442Z,69.44
2023-01-31T08:01:41.087Z,69.22
2023-01-31T08:04:21.053Z,69.41
2023-01-31T08:07:03.763Z,69.54
2023-01-31T08:09:33.003Z,69.36
2023-01-31T08:12:01.620Z,69.37
2023-01-31T08:14:31.089Z,69.55
2023-01-31T08:17:00.305Z,69.54
2023-01-31T08:19:29.720Z,69.40
2023-01-31T08:21:59.359Z,69.44
2023-01-31T08:24:29.221Z,69.21
2023-01-31T08:26:58.270Z,69.43
2023-01-31T08:29:27.343Z,69.22
2023-01-31T08:31:57.935Z,69.19
2023-01-31T08:34:28.473Z,69.32
2023-01-31T08:36:56.872Z,69.06
2023-01-31T08:39:26.203Z,69.18
2023-01-31T08:41:55.690Z,69.03
2023-01-31T08:44:24.845Z,69.13
2023-01-31T08:46:54.145Z,69.02
2023-01-31T08:49:22.682Z,68.98
2023-01-31T08:51:51.399Z,69.01
2023-01-31T08:54:20.776Z,69.01
2023-01-31T08:56:49.801Z,68.96
2023-01-31T08:59:18.127Z,69.02
2023-01-31T09:01:47.077Z,68.75
2023-01-31T09:04:15.257Z,68.84
2023-01-31T09:06:44.489Z,68.74
2023-01-31T09:09:13.515Z,68.64
2023-01-31T09:11:42.872Z,68.67
2023-01-31T09:14:11.241Z,68.69
2023-01-31T09:16:42.482Z,68.75
2023-01-31T09:19:13.011Z,68.81
2023-01-31T09:21:42.359Z,68.73
2023-01-31T09:24:14.125Z,68.66
2023-01-31T09:26:43.360Z,68.60
2023-01-31T09:29:12.764Z,68.73
2023-01-31T09:31:41.935Z,68.59
2023-01-31T09:34:11.611Z,68.43
2023-01-31T09:36:40.776Z,68.62
2023-01-31T09:39:12.801Z,68.65
2023-01-31T09:41:52.668Z,68.63
2023-01-31T09:44:28.859Z,68.43
2023-01-31T09:47:30.077Z,68.30
2023-01-31T09:50:05.675Z,68.38
2023-01-31T09:52:35.001Z,68.44
2023-01-31T09:55:09.085Z,68.31
2023-01-31T09:57:59.569Z,68.39
2023-01-31T10:00:46.955Z,68.31
2023-01-31T10:03:24.206Z,68.30
2023-01-31T10:06:29.361Z,68.15
2023-01-31T10:09:19.439Z,68.15
2023-01-31T10:11:52.866Z,68.04
2023-01-31T10:14:33.061Z,68.04
2023-01-31T10:17:01.857Z,67.83
2023-01-31T10:19:54.186Z,67.94
2023-01-31T10:22:38.349Z,67.78
2023-01-31T10:25:19.020Z,67.69
2023-01-31T10:28:04.420Z,67.68
2023-01-31T10:30:48.994Z,67.64
2023-01-31T10:33:55.936Z,67.76
2023-01-31T10:36:33.927Z,67.52
2023-01-31T10:39:13.754Z,67.48
2023-01-31T10:42:22.498Z,67.59
2023-01-31T10:44:59.093Z,67.20
2023-01-31T10:47:38.267Z,67.61
2023-01-31T10:50:19.648Z,67.35
2023-01-31T10:52:54.650Z,67.38
2023-01-31T10:55:34.438Z,67.32
2023-01-31T10:58:03.761Z,67.14
2023-01-31T11:00:34.213Z,67.24
2023-01-31T11:03:03.390Z,67.51
2023-01-31T11:05:33.088Z,67.30
2023-01-31T11:08:21.838Z,67.11
2023-01-31T11:10:53.163Z,67.23
2023-01-31T11:13:24.051Z,67.31
2023-01-31T11:15:56.364Z,67.11
2023-01-31T11:18:30.622Z,67.02
2023-01-31T11:21:02.468Z,67.00
2023-01-31T11:23:34.344Z,66.99
2023-01-31T11:26:04.483Z,66.82
2023-01-31T11:28:41.485Z,66.86
2023-01-31T11:31:29.080Z,66.65
2023-01-31T11:34:04.249Z,66.86
2023-01-31T11:36:42.665Z,66.81
2023-01-31T11:39:37.368Z,66.87
2023-01-31T11:42:15.133Z,66.70
2023-01-31T11:45:03.428Z,66.70
2023-01-31T11:47:50.619Z,66.72
2023-01-31T11:50:28.071Z,66.63
2023-01-31T11:53:14.826Z,66.53
2023-01-31T11:55:46.220Z,66.44
2023-01-31T11:58:20.914Z,66.32
2023-01-31T12:01:07.780Z,66.34
2023-01-31T12:03:48.673Z,66.35
2023-01-31T12:06:32.349Z,66.36
2023-01-31T12:09:05.749Z,66.43
2023-01-31T12:11:36.880Z,66.31
2023-01-31T12:14:17.436Z,66.23
2023-01-31T12:16:49.393Z,66.08
2023-01-31T12:19:33.193Z,66.16
2023-01-31T12:22:33.031Z,66.10
2023-01-31T12:25:14.529Z,66.12
2023-01-31T12:27:56.927Z,66.28
2023-01-31T12:30:31.516Z,66.28
2023-01-31T12:33:26.495Z,66.05
2023-01-31T12:36:27.486Z,65.94
2023-01-31T12:39:14.419Z,65.86
2023-01-31T12:42:25.183Z,65.97
2023-01-31T12:45:19.384Z,65.99
2023-01-31T12:47:59.603Z,65.82
2023-01-31T12:50:55.113Z,65.89
2023-01-31T12:53:52.479Z,65.96
2023-01-31T12:57:02.440Z,65.71
2023-01-31T12:59:58.269Z,65.67
2023-01-31T13:02:29.726Z,65.68
2023-01-31T13:05:01.199Z,65.71
2023-01-31T13:07:49.140Z,65.80
2023-01-31T13:10:38.449Z,65.71
2023-01-31T13:13:15.977Z,65.74
2023-01-31T13:15:49.151Z,65.46
2023-01-31T13:18:18.283Z,65.53
2023-01-31T13:21:07.860Z,65.62
2023-01-31T13:23:49.854Z,65.54
2023-01-31T13:26:24.188Z,65.51
2023-01-31T13:29:19.354Z,65.49
2023-01-31T13:32:14.845Z,65.42
2023-01-31T13:35:08.423Z,65.39
2023-01-31T13:37:44.200Z,65.44
2023-01-31T13:40:23.044Z,65.48
2023-01-31T13:42:54.539Z,65.49
2023-01-31T13:45:31.027Z,65.34
2023-01-31T13:48:05.424Z,65.25
2023-01-31T13:50:47.390Z,65.21
2023-01-31T13:53:29.053Z,65.12
2023-01-31T13:55:59.221Z,65.11
2023-01-31T13:58:34.210Z,65.24
2023-01-31T14:01:05.555Z,65.24
2023-01-31T14:04:15.698Z,65.15
2023-01-31T14:06:55.834Z,65.13
2023-01-31T14:09:34.090Z,64.94
2023-01-31T14:12:23.827Z,64.86
2023-01-31T14:14:55.093Z,64.97
2023-01-31T14:17:30.129Z,64.89
2023-01-31T14:20:00.848Z,64.88
2023-01-31T14:22:35.960Z,64.68
2023-01-31T14:25:11.559Z,64.81
2023-01-31T14:27:43.727Z,64.97
2023-01-31T14:30:34.576Z,64.88
2023-01-31T14:33:09.170Z,64.90
2023-01-31T14:35:41.503Z,64.82
2023-01-31T14:38:17.124Z,64.79
2023-01-31T14:41:04.794Z,64.70
2023-01-31T14:44:08.227Z,64.67
2023-01-31T14:46:49.755Z,64.82
2023-01-31T14:49:24.858Z,64.70
2023-01-31T14:52:11.374Z,64.77
2023-01-31T14:55:10.341Z,64.83
2023-01-31T14:57:46.195Z,64.77
2023-01-31T15:00:15.648Z,64.81
2023-01-31T15:03:02.822Z,64.71
2023-01-31T15:05:32.468Z,64.78
2023-01-31T15:08:06.067Z,64.66
2023-01-31T15:11:40.681Z,64.78
2023-01-31T15:14:33.329Z,64.86
2023-01-31T15:17:34.584Z,64.80
2023-01-31T15:20:18.684Z,64.80
2023-01-31T15:22:49.499Z,64.85
2023-01-31T15:25:23.670Z,64.75
2023-01-31T15:27:55.692Z,64.80
2023-01-31T15:30:25.932Z,64.75
2023-01-31T15:32:59.397Z,64.75
2023-01-31T15:35:33.461Z,64.96
2023-01-31T15:38:10.753Z,64.85
2023-01-31T15:40:40.058Z,64.66
2023-01-31T15:43:25.373Z,64.83
2023-01-31T15:45:53.830Z,64.60
2023-01-31T15:48:23.848Z,64.69
2023-01-31T15:50:54.689Z,64.82
2023-01-31T15:53:31.410Z,64.96
2023-01-31T15:56:03.675Z,65.01
2023-01-31T16:03:08.379Z,64.98
2023-01-31T16:05:40.993Z,65.08
2023-01-31T16:08:36.639Z,65.00
2023-01-31T16:11:09.952Z,64.94
2023-01-31T16:13:43.423Z,65.24
2023-01-31T16:16:17.071Z,65.11
2023-01-31T16:18:51.328Z,64.82
2023-01-31T16:21:39.323Z,65.25
2023-01-31T16:24:17.614Z,65.22
2023-01-31T16:26:55.867Z,65.11
2023-01-31T16:29:40.218Z,64.97
2023-01-31T16:32:25.563Z,65.36
2023-01-31T16:34:55.607Z,65.38
2023-01-31T16:37:42.514Z,65.13
2023-01-31T16:40:32.193Z,64.97
2023-01-31T16:43:22.570Z,65.16
2023-01-31T16:45:54.241Z,65.26
2023-01-31T16:48:26.349Z,65.42
2023-01-31T16:50:58.195Z,65.22
2023-01-31T16:53:33.891Z,65.43
2023-01-31T16:56:14.803Z,65.32
2023-01-31T16:58:51.356Z,65.35
2023-01-31T17:01:31.896Z,65.20
2023-01-31T17:04:05.351Z,65.29
2023-01-31T17:06:35.364Z,65.59
2023-01-31T17:09:05.480Z,65.38
2023-01-31T17:11:42.741Z,65.50
2023-01-31T17:14:12.101Z,65.35
2023-01-31T17:16:40.371Z,65.62
2023-01-31T17:19:09.593Z,65.37
2023-01-31T17:21:43.411Z,65.53
2023-01-31T17:24:18.580Z,65.41
2023-01-31T17:26:47.307Z,65.41
2023-01-31T17:29:15.752Z,65.29
2023-01-31T17:31:44.341Z,65.49
2023-01-31T17:34:15.765Z,65.69
2023-01-31T17:36:45.725Z,65.62
2023-01-31T17:39:16.267Z,65.60
2023-01-31T17:41:47.271Z,65.59
2023-01-31T17:44:17.274Z,65.63
2023-01-31T17:46:45.656Z,65.72
2023-01-31T17:49:14.356Z,65.76
2023-01-31T17:51:45.639Z,65.80
2023-01-31T17:54:14.046Z,65.74
2023-01-31T17:56:42.681Z,65.60
2023-01-31T17:59:21.640Z,65.61
2023-01-31T18:01:57.871Z,65.60
2023-01-31T18:04:27.163Z,65.70
2023-01-31T18:06:56.569Z,65.84
2023-01-31T18:09:26.933Z,65.77
2023-01-31T18:11:55.883Z,65.85
2023-01-31T18:14:25.538Z,65.78
2023-01-31T18:16:54.441Z,65.68
2023-01-31T18:19:22.914Z,65.83
2023-01-31T18:21:55.272Z,65.73
2023-01-31T18:24:25.280Z,65.92
2023-01-31T18:26:54.689Z,65.84
2023-01-31T18:29:26.523Z,65.93
2023-01-31T18:31:58.240Z,65.99
2023-01-31T18:34:26.702Z,65.86
2023-01-31T18:36:55.204Z,66.07
2023-01-31T18:39:25.610Z,66.17
2023-01-31T18:41:54.532Z,66.21
2023-01-31T18:44:23.147Z,66.07
2023-01-31T18:46:51.585Z,66.01
2023-01-31T18:49:20.299Z,65.90
2023-01-31T18:51:49.903Z,66.03
2023-01-31T18:54:18.415Z,66.15
2023-01-31T18:56:46.783Z,66.25
2023-01-31T18:59:15.466Z,66.47
2023-01-31T19:01:43.928Z,66.06
2023-01-31T19:04:12.311Z,66.25
2023-01-31T19:06:41.502Z,66.11
2023-01-31T19:09:10.208Z,66.15
2023-01-31T19:11:40.657Z,66.08
2023-01-31T19:14:13.333Z,66.17
2023-01-31T19:16:43.856Z,66.27
2023-01-31T19:19:13.083Z,66.44
2023-01-31T19:21:42.130Z,66.36
2023-01-31T19:24:14.019Z,66.50
2023-01-31T19:26:43.450Z,66.26
2023-01-31T19:29:15.916Z,66.39
2023-01-31T19:31:45.885Z,66.48
2023-01-31T19:34:15.447Z,66.73
2023-01-31T19:36:47.144Z,66.44
2023-01-31T19:39:16.818Z,66.69
2023-01-31T19:41:46.113Z,66.61
2023-01-31T19:44:15.243Z,66.82
2023-01-31T19:46:44.384Z,66.69
2023-01-31T19:49:13.661Z,66.77
2023-01-31T19:51:42.587Z,66.72
2023-01-31T19:54:17.190Z,67.04
2023-01-31T19:56:45.605Z,66.80
2023-01-31T19:59:14.962Z,66.87
2023-01-31T20:01:44.229Z,66.90
2023-01-31T20:04:12.594Z,66.73
2023-01-31T20:06:41.161Z,67.03
2023-01-31T20:09:15.122Z,67.05
2023-01-31T20:11:44.271Z,67.08
2023-01-31T20:14:13.274Z,66.85
2023-01-31T20:16:41.979Z,66.90
2023-01-31T20:19:10.627Z,66.97
2023-01-31T20:21:39.972Z,67.21
2023-01-31T20:24:09.946Z,67.25
2023-01-31T20:26:38.428Z,67.01
2023-01-31T20:29:09.513Z,67.14
2023-01-31T21:15:41.473Z,67.75
2023-01-31T21:18:10.833Z,67.96
2023-01-31T21:20:46.756Z,67.99
2023-01-31T21:23:19.964Z,68.01
2023-01-31T21:25:51.061Z,68.07
2023-01-31T21:28:21.053Z,68.03
2023-01-31T21:31:05.111Z,68.06
2023-01-31T21:33:33.439Z,68.24
2023-01-31T21:36:10.040Z,68.17
2023-01-31T21:38:41.166Z,68.10
2023-01-31T22:15:46.865Z,68.69
2023-01-31T22:18:15.298Z,68.77
2023-01-31T22:20:49.339Z,68.89
2023-01-31T22:23:21.213Z,68.85
2023-01-31T22:25:56.729Z,68.90
2023-01-31T22:28:30.542Z,68.85
2023-01-31T22:31:01.153Z,68.92
2023-01-31T22:33:31.844Z,68.92
2023-01-31T22:36:02.037Z,68.77
2023-01-31T22:38:53.069Z,68.62
2023-01-31T22:41:23.739Z,68.39
2023-01-31T22:43:54.914Z,68.21
2023-01-31T22:46:29.314Z,68.25
2023-01-31T22:48:59.014Z,68.05
2023-01-31T22:51:29.549Z,68.18
2023-01-31T22:54:01.327Z,68.09
2023-01-31T22:56:32.516Z,68.37
2023-01-31T22:59:05.679Z,68.49
2023-01-31T23:01:51.219Z,68.59
2023-01-31T23:04:27.791Z,68.61
2023-01-31T23:07:01.845Z,68.61
2023-01-31T23:09:31.977Z,68.80
2023-01-31T23:12:04.616Z,68.60
2023-01-31T23:14:33.936Z,68.49
2023-01-31T23:17:23.182Z,68.55
2023-01-31T23:19:55.597Z,68.69
2023-01-31T23:22:24.801Z,68.85
2023-01-31T23:24:58.671Z,68.98
2023-01-31T23:27:28.414Z,68.71
2023-01-31T23:29:59.020Z,68.72
2023-01-31T23:32:28.066Z,68.81
2023-01-31T23:34:56.537Z,69.03
2023-01-31T23:37:25.450Z,69.08
2023-01-31T23:39:55.384Z,68.84
2023-01-31T23:42:25.085Z,69.19
2023-01-31T23:44:54.255Z,69.10
2023-01-31T23:47:24.456Z,68.86
2023-01-31T23:49:53.506Z,68.85
2023-01-31T23:52:25.157Z,68.79
2023-01-31T23:54:54.545Z,69.16
2023-01-31T23:57:23.431Z,69.29
2023-01-31T23:59:53.636Z,69.15
